ADDS METAR Data INFO
IDs: Format: Raw Decoded Include TAF

Data at: 2036 UTC 20 Jul 2018

METAR for:KLRD (Laredo Intl Apt, TX, US)
Text:KLRD 201956Z 15015G19KT 10SM CLR 40/16 A2989 RMK AO2 SLP116 T04000161
Temperature: 40.0°C (104°F)
Dewpoint: 16.1°C ( 61°F) [RH = 25%]
Pressure (altimeter):29.89 inches Hg (1012.3 mb) [Sea level pressure: 1011.6 mb]
Winds:from the SSE (150 degrees) at 17 MPH (15 knots; 7.7 m/s) gusting to 22 MPH (19 knots; 9.8 m/s)
Visibility:10 or more sm (16+ km)
Ceiling:at least 12,000 feet AGL
Clouds:sky clear below 12,000 feet AGL